createdAt,value
2022-12-25T00:01:33.555Z,101423.00
2022-12-25T00:04:01.257Z,101424.75
2022-12-25T00:06:28.680Z,101427.22
2022-12-25T00:08:56.008Z,101408.97
2022-12-25T00:11:23.424Z,101422.84
2022-12-25T00:13:51.204Z,101420.16
2022-12-25T00:16:22.677Z,101411.31
2022-12-25T00:18:51.495Z,101412.22
2022-12-25T00:21:20.723Z,101405.31
2022-12-25T00:23:48.686Z,101411.47
2022-12-25T00:26:17.923Z,101397.59
2022-12-25T00:28:47.159Z,101386.22
2022-12-25T00:31:22.531Z,101393.16
2022-12-25T00:33:51.434Z,101392.38
2022-12-25T00:36:22.040Z,101383.84
2022-12-25T00:38:49.475Z,101389.19
2022-12-25T00:41:39.425Z,101389.31
2022-12-25T00:44:07.876Z,101404.19
2022-12-25T00:46:35.641Z,101401.63
2022-12-25T00:49:03.734Z,101400.94
2022-12-25T00:51:31.012Z,101400.13
2022-12-25T00:53:58.651Z,101409.69
2022-12-25T00:56:26.085Z,101414.09
2022-12-25T00:58:54.354Z,101416.72
2022-12-25T01:01:21.925Z,101409.75
2022-12-25T01:03:50.160Z,101412.38
2022-12-25T01:06:17.640Z,101415.75
2022-12-25T01:09:04.796Z,101407.03
2022-12-25T01:11:34.383Z,101409.63
2022-12-25T01:14:02.033Z,101414.91
2022-12-25T01:16:29.722Z,101407.97
2022-12-25T01:18:57.253Z,101413.16
2022-12-25T01:21:24.713Z,101397.50
2022-12-25T01:23:53.595Z,101386.94
2022-12-25T01:26:23.838Z,101395.41
2022-12-25T01:28:51.890Z,101402.22
2022-12-25T01:31:24.494Z,101408.22
2022-12-25T01:33:53.016Z,101410.81
2022-12-25T01:36:23.286Z,101416.91
2022-12-25T01:38:51.925Z,101414.19
2022-12-25T01:41:22.328Z,101418.44
2022-12-25T01:44:01.630Z,101427.97
2022-12-25T01:46:30.152Z,101444.50
2022-12-25T01:49:01.956Z,101442.75
2022-12-25T01:51:35.644Z,101446.22
2022-12-25T01:54:07.542Z,101448.78
2022-12-25T01:56:37.251Z,101439.19
2022-12-25T01:59:08.638Z,101434.72
2022-12-25T02:01:36.594Z,101433.84
2022-12-25T02:04:38.858Z,101442.53
2022-12-25T02:07:13.828Z,101434.84
2022-12-25T02:09:41.902Z,101436.75
2022-12-25T02:12:15.263Z,101435.16
2022-12-25T02:14:42.662Z,101434.44
2022-12-25T02:17:30.130Z,101436.34
2022-12-25T02:20:03.906Z,101433.94
2022-12-25T02:23:18.525Z,101435.00
2022-12-25T02:26:07.789Z,101437.81
2022-12-25T02:28:45.443Z,101430.91
2022-12-25T02:31:27.464Z,101436.31
2022-12-25T02:34:12.079Z,101427.78
2022-12-25T02:36:53.978Z,101418.38
2022-12-25T02:39:59.281Z,101420.25
2022-12-25T02:42:56.299Z,101430.88
2022-12-25T02:46:07.911Z,101409.28
2022-12-25T02:49:00.500Z,101421.66
2022-12-25T02:51:50.888Z,101422.66
2022-12-25T02:54:42.828Z,101418.47
2022-12-25T02:57:31.643Z,101410.81
2022-12-25T03:00:19.728Z,101406.56
2022-12-25T03:03:07.626Z,101396.31
2022-12-25T03:05:57.494Z,101392.91
2022-12-25T03:08:29.797Z,101383.53
2022-12-25T03:11:29.869Z,101385.44
2022-12-25T03:14:26.929Z,101390.88
2022-12-25T03:16:58.989Z,101388.50
2022-12-25T03:19:48.999Z,101390.47
2022-12-25T03:22:48.373Z,101384.63
2022-12-25T03:25:35.922Z,101373.50
2022-12-25T03:28:03.843Z,101379.72
2022-12-25T03:31:12.631Z,101377.31
2022-12-25T03:34:20.065Z,101358.31
2022-12-25T03:37:20.851Z,101350.56
2022-12-25T03:40:30.631Z,101346.44
2022-12-25T03:43:25.772Z,101350.06
2022-12-25T03:46:17.866Z,101345.75
2022-12-25T03:49:08.731Z,101335.38
2022-12-25T03:51:55.949Z,101339.78
2022-12-25T03:54:46.636Z,101332.84
2022-12-25T03:57:49.634Z,101318.88
2022-12-25T04:00:35.680Z,101314.50
2022-12-25T04:03:38.536Z,101327.47
2022-12-25T04:06:24.899Z,101322.13
2022-12-25T04:09:10.604Z,101308.97
2022-12-25T04:12:02.165Z,101310.75
2022-12-25T04:14:48.816Z,101306.50
2022-12-25T04:17:54.587Z,101293.50
2022-12-25T04:20:40.936Z,101293.59
2022-12-25T04:23:27.065Z,101293.69
2022-12-25T04:26:15.633Z,101299.97
2022-12-25T04:29:01.826Z,101296.53
2022-12-25T04:31:47.417Z,101294.03
2022-12-25T04:34:33.067Z,101303.75
2022-12-25T04:37:00.331Z,101300.31
2022-12-25T04:39:27.575Z,101297.78
2022-12-25T04:41:54.815Z,101297.88
2022-12-25T04:44:22.223Z,101296.25
2022-12-25T04:46:51.145Z,101312.81
2022-12-25T04:49:24.544Z,101318.91
2022-12-25T04:51:51.884Z,101327.63
2022-12-25T04:54:19.265Z,101326.81
2022-12-25T04:56:46.617Z,101329.47
2022-12-25T04:59:14.096Z,101329.44
2022-12-25T05:01:41.482Z,101328.56
2022-12-25T05:04:08.836Z,101325.09
2022-12-25T05:06:37.219Z,101318.13
2022-12-25T05:09:04.633Z,101323.41
2022-12-25T05:11:31.995Z,101331.28
2022-12-25T05:14:00.221Z,101324.44
2022-12-25T05:16:28.099Z,101324.53
2022-12-25T05:18:55.499Z,101333.31
2022-12-25T05:21:23.348Z,101322.06
2022-12-25T05:23:54.140Z,101326.47
2022-12-25T05:26:23.083Z,101340.59
2022-12-25T05:28:50.728Z,101336.28
2022-12-25T05:31:18.958Z,101332.03
2022-12-25T05:33:50.343Z,101320.78
2022-12-25T05:36:17.893Z,101329.59
2022-12-25T05:38:45.319Z,101313.22
2022-12-25T05:41:12.732Z,101308.97
2022-12-25T05:43:39.980Z,101310.84
2022-12-25T05:46:09.281Z,101310.94
2022-12-25T05:48:37.895Z,101317.97
2022-12-25T05:51:10.516Z,101330.25
2022-12-25T05:53:38.591Z,101322.44
2022-12-25T05:56:09.264Z,101327.72
2022-12-25T05:58:38.448Z,101327.75
2022-12-25T06:01:23.241Z,101315.59
2022-12-25T06:03:51.210Z,101320.03
2022-12-25T06:06:19.176Z,101309.63
2022-12-25T06:08:46.584Z,101316.66
2022-12-25T06:11:15.019Z,101309.72
2022-12-25T06:13:42.551Z,101320.34
2022-12-25T06:16:13.411Z,101309.06
2022-12-25T06:18:44.644Z,101307.38
2022-12-25T06:21:14.463Z,101300.44
2022-12-25T06:23:42.830Z,101299.63
2022-12-25T06:26:14.389Z,101301.41
2022-12-25T06:28:43.454Z,101314.56
2022-12-25T06:31:19.305Z,101305.00
2022-12-25T06:33:47.208Z,101299.78
2022-12-25T06:36:17.500Z,101287.63
2022-12-25T06:38:45.185Z,101288.50
2022-12-25T06:41:15.727Z,101283.31
2022-12-25T06:43:43.040Z,101285.09
2022-12-25T06:46:12.390Z,101281.59
2022-12-25T06:48:41.363Z,101302.66
2022-12-25T06:51:08.609Z,101291.31
2022-12-25T06:53:40.243Z,101289.63
2022-12-25T06:56:10.545Z,101288.84
2022-12-25T06:58:37.811Z,101277.50
2022-12-25T07:01:24.398Z,101269.69
2022-12-25T07:03:55.277Z,101277.59
2022-12-25T07:06:22.461Z,101279.38
2022-12-25T07:08:49.902Z,101264.59
2022-12-25T07:11:17.902Z,101264.59
2022-12-25T07:13:45.400Z,101264.63
2022-12-25T07:16:13.284Z,101274.28
2022-12-25T07:18:41.421Z,101274.28
2022-12-25T07:21:11.861Z,101280.41
2022-12-25T07:23:39.377Z,101268.19
2022-12-25T07:26:07.095Z,101262.94
2022-12-25T07:28:35.186Z,101269.94
2022-12-25T07:31:08.433Z,101281.31
2022-12-25T07:33:36.396Z,101285.69
2022-12-25T07:36:05.553Z,101271.72
2022-12-25T07:38:32.933Z,101263.84
2022-12-25T07:41:00.696Z,101267.34
2022-12-25T07:43:28.234Z,101266.47
2022-12-25T07:45:57.888Z,101267.41
2022-12-25T07:48:29.021Z,101269.19
2022-12-25T07:51:05.128Z,101268.31
2022-12-25T07:53:33.168Z,101272.72
2022-12-25T07:56:02.419Z,101268.41
2022-12-25T07:58:30.660Z,101273.69
2022-12-25T08:01:06.409Z,101274.63
2022-12-25T08:03:35.549Z,101284.28
2022-12-25T08:06:05.551Z,101279.97
2022-12-25T08:08:33.962Z,101288.72
2022-12-25T08:11:01.266Z,101282.66
2022-12-25T08:13:32.495Z,101286.22
2022-12-25T08:16:05.537Z,101293.28
2022-12-25T08:18:32.796Z,101294.22
2022-12-25T08:21:05.294Z,101306.44
2022-12-25T08:23:35.435Z,101303.03
2022-12-25T08:26:05.591Z,101286.41
2022-12-25T08:28:33.649Z,101296.97
2022-12-25T08:31:21.000Z,101279.53
2022-12-25T08:33:49.979Z,101281.34
2022-12-25T08:36:18.562Z,101292.75
2022-12-25T08:38:46.266Z,101298.84
2022-12-25T08:41:14.911Z,101306.75
2022-12-25T08:43:43.160Z,101300.66
2022-12-25T08:46:11.058Z,101316.44
2022-12-25T08:48:38.698Z,101305.09
2022-12-25T08:51:11.305Z,101293.72
2022-12-25T08:53:38.747Z,101299.81
2022-12-25T08:56:06.421Z,101304.19
2022-12-25T08:58:34.598Z,101307.72
2022-12-25T09:01:02.026Z,101297.25
2022-12-25T09:03:32.248Z,101307.72
2022-12-25T09:06:05.512Z,101313.84
2022-12-25T09:08:33.576Z,101308.59
2022-12-25T09:11:05.991Z,101299.88
2022-12-25T09:13:33.936Z,101309.53
2022-12-25T09:16:06.239Z,101318.25
2022-12-25T09:18:34.682Z,101314.84
2022-12-25T09:21:04.663Z,101302.59
2022-12-25T09:23:33.591Z,101305.25
2022-12-25T09:26:06.717Z,101321.03
2022-12-25T09:28:34.451Z,101304.41
2022-12-25T09:31:02.596Z,101308.84
2022-12-25T09:33:29.969Z,101295.72
2022-12-25T09:35:59.601Z,101286.13
2022-12-25T09:38:29.251Z,101291.34
2022-12-25T09:41:09.318Z,101300.16
2022-12-25T09:43:47.203Z,101301.88
2022-12-25T09:46:20.475Z,101290.53
2022-12-25T09:49:21.116Z,101289.69
2022-12-25T09:51:54.992Z,101288.84
2022-12-25T09:54:34.291Z,101280.13
2022-12-25T09:57:01.941Z,101281.91
2022-12-25T09:59:29.390Z,101280.16
2022-12-25T10:02:15.414Z,101273.22
2022-12-25T10:04:54.854Z,101276.72
2022-12-25T10:08:02.202Z,101294.25
2022-12-25T10:10:47.290Z,101288.13
2022-12-25T10:13:26.904Z,101264.53
2022-12-25T10:16:16.130Z,101267.16
2022-12-25T10:18:53.753Z,101250.53
2022-12-25T10:21:23.641Z,101239.19
2022-12-25T10:24:13.338Z,101238.31
2022-12-25T10:26:41.039Z,101241.81
2022-12-25T10:29:15.387Z,101244.47
2022-12-25T10:31:46.880Z,101241.84
2022-12-25T10:34:16.161Z,101231.38
2022-12-25T10:36:47.360Z,101234.91
2022-12-25T10:39:19.864Z,101244.56
2022-12-25T10:42:10.755Z,101248.97
2022-12-25T10:44:38.242Z,101242.84
2022-12-25T10:47:14.992Z,101248.97
2022-12-25T10:49:49.825Z,101247.25
2022-12-25T10:52:28.427Z,101240.31
2022-12-25T10:54:58.025Z,101235.94
2022-12-25T10:57:29.336Z,101229.88
2022-12-25T10:59:59.564Z,101231.69
2022-12-25T11:02:47.751Z,101231.69
2022-12-25T11:05:31.322Z,101243.13
2022-12-25T11:08:02.222Z,101243.13
2022-12-25T11:10:41.471Z,101251.91
2022-12-25T11:13:33.961Z,101248.47
2022-12-25T11:16:15.472Z,101244.09
2022-12-25T11:19:02.915Z,101228.44
2022-12-25T11:21:34.576Z,101214.44
2022-12-25T11:24:05.132Z,101211.03
2022-12-25T11:27:03.097Z,101188.38
2022-12-25T11:30:21.291Z,101183.19
2022-12-25T11:32:57.167Z,101170.19
2022-12-25T11:35:33.309Z,101169.38
2022-12-25T11:38:06.010Z,101165.97
2022-12-25T11:41:00.456Z,101163.38
2022-12-25T11:44:06.167Z,101162.50
2022-12-25T11:46:53.901Z,101162.53
2022-12-25T11:49:40.171Z,101152.91
2022-12-25T11:52:19.349Z,101143.31
2022-12-25T11:55:46.481Z,101152.09
2022-12-25T11:58:37.074Z,101146.84
2022-12-25T12:01:26.697Z,101140.72
2022-12-25T12:07:03.825Z,101134.63
2022-12-25T12:10:09.924Z,101120.63
2022-12-25T12:13:15.188Z,101118.00
2022-12-25T12:15:57.524Z,101115.41
2022-12-25T12:18:51.956Z,101118.88
2022-12-25T12:21:29.256Z,101103.16
2022-12-25T12:24:09.414Z,101098.81
2022-12-25T12:26:41.094Z,101095.31
2022-12-25T12:29:27.461Z,101093.53
2022-12-25T12:32:00.230Z,101111.91
2022-12-25T12:34:42.390Z,101112.78
2022-12-25T12:37:35.829Z,101115.34
2022-12-25T12:40:11.240Z,101110.09
2022-12-25T12:42:50.958Z,101110.09
2022-12-25T12:45:28.303Z,101103.13
2022-12-25T12:47:57.053Z,101098.75
2022-12-25T12:50:45.545Z,101088.28
2022-12-25T12:53:30.140Z,101095.31
2022-12-25T12:56:32.254Z,101097.06
2022-12-25T12:59:10.348Z,101088.34
2022-12-25T13:01:48.158Z,101097.09
2022-12-25T13:04:25.703Z,101079.63
2022-12-25T13:06:55.695Z,101077.06
2022-12-25T13:10:15.605Z,101078.81
2022-12-25T13:13:00.581Z,101076.19
2022-12-25T13:15:34.141Z,101080.59
2022-12-25T13:18:11.091Z,101076.22
2022-12-25T13:20:58.884Z,101060.47
2022-12-25T13:23:45.337Z,101058.72
2022-12-25T13:26:17.420Z,101064.84
2022-12-25T13:28:49.777Z,101044.72
2022-12-25T13:31:37.333Z,101042.97
2022-12-25T13:34:18.375Z,101047.28
2022-12-25T13:36:48.466Z,101037.66
2022-12-25T13:39:19.987Z,101036.78
2022-12-25T13:42:08.355Z,101030.63
2022-12-25T13:45:09.156Z,101024.50
2022-12-25T13:47:49.937Z,101027.09
2022-12-25T13:50:25.256Z,101027.06
2022-12-25T13:53:02.120Z,101005.19
2022-12-25T13:55:33.902Z,101011.31
2022-12-25T13:58:39.766Z,101003.41
2022-12-25T14:01:07.600Z,100999.03
2022-12-25T14:03:40.097Z,101001.63
2022-12-25T14:06:20.763Z,101006.88
2022-12-25T14:08:48.923Z,101002.50
2022-12-25T14:11:20.586Z,101004.22
2022-12-25T14:13:51.316Z,101001.59
2022-12-25T14:16:20.902Z,100999.81
2022-12-25T14:19:01.083Z,100989.34
2022-12-25T14:21:41.805Z,100998.94
2022-12-25T14:24:16.780Z,100988.41
2022-12-25T14:26:46.066Z,100987.53
2022-12-25T14:29:28.488Z,100985.75
2022-12-25T14:32:08.385Z,100997.13
2022-12-25T14:34:37.925Z,100995.31
2022-12-25T14:37:23.386Z,100994.44
2022-12-25T14:40:03.131Z,100999.69
2022-12-25T14:42:33.418Z,100994.44
2022-12-25T14:45:06.599Z,100989.19
2022-12-25T14:47:53.949Z,100992.69
2022-12-25T14:50:41.210Z,100988.28
2022-12-25T14:53:24.957Z,100990.91
2022-12-25T14:55:55.864Z,100999.63
2022-12-25T14:58:54.454Z,101000.50
2022-12-25T15:01:45.633Z,101003.97
2022-12-25T15:04:18.352Z,100997.00
2022-12-25T15:07:12.086Z,100991.75
2022-12-25T15:09:40.651Z,100987.34
2022-12-25T15:12:09.576Z,100979.47
2022-12-25T15:14:42.538Z,100983.00
2022-12-25T15:17:24.086Z,100989.97
2022-12-25T15:19:55.952Z,100988.22
2022-12-25T15:22:54.008Z,100982.97
2022-12-25T15:25:22.198Z,100991.66
2022-12-25T15:27:50.198Z,100986.44
2022-12-25T15:30:23.856Z,100984.69
2022-12-25T15:33:06.010Z,100980.31
2022-12-25T15:35:36.515Z,100988.19
2022-12-25T15:38:03.875Z,100989.94
2022-12-25T15:40:31.209Z,100989.03
2022-12-25T15:42:59.979Z,100989.03
2022-12-25T15:45:33.170Z,100987.31
2022-12-25T15:48:11.148Z,100999.53
2022-12-25T15:50:40.434Z,100991.63
2022-12-25T15:53:12.909Z,101006.50
2022-12-25T15:55:40.437Z,101007.38
2022-12-25T15:58:13.421Z,101002.13
2022-12-25T16:00:43.371Z,101003.88
2022-12-25T16:03:19.101Z,101008.25
2022-12-25T16:05:46.636Z,101001.22
2022-12-25T16:08:15.415Z,101006.47
2022-12-25T16:10:52.819Z,100993.31
2022-12-25T16:13:28.539Z,100989.00
2022-12-25T16:16:00.462Z,100994.22
2022-12-25T16:18:35.279Z,100992.44
2022-12-25T16:21:03.608Z,100996.84
2022-12-25T16:23:32.056Z,100991.59
2022-12-25T16:26:02.120Z,100993.31
2022-12-25T16:28:33.281Z,101001.19
2022-12-25T16:31:01.003Z,100996.78
2022-12-25T16:33:34.610Z,101003.78
2022-12-25T16:36:29.139Z,101002.00
2022-12-25T16:39:04.594Z,101006.38
2022-12-25T16:41:46.222Z,100989.75
2022-12-25T16:44:14.750Z,100985.38
2022-12-25T16:46:44.083Z,100987.09
2022-12-25T16:49:20.011Z,100987.94
2022-12-25T16:51:48.113Z,100985.31
2022-12-25T16:54:15.554Z,100983.59
2022-12-25T16:56:44.541Z,100974.84
2022-12-25T16:59:20.959Z,100986.19
2022-12-25T17:01:51.368Z,100977.47
2022-12-25T17:04:22.205Z,100974.84
2022-12-25T17:06:52.083Z,100976.56
2022-12-25T17:09:23.120Z,100972.22
2022-12-25T17:11:51.763Z,100969.56
2022-12-25T17:14:20.454Z,100974.81
2022-12-25T17:16:49.418Z,100964.31
2022-12-25T17:19:31.610Z,100962.53
2022-12-25T17:22:00.276Z,100954.63
2022-12-25T17:24:29.305Z,100951.09
2022-12-25T17:27:00.057Z,100947.59
2022-12-25T17:29:28.146Z,100944.97
2022-12-25T17:31:55.946Z,100951.09
2022-12-25T17:34:23.466Z,100953.72
2022-12-25T17:36:51.490Z,100951.09
2022-12-25T17:39:19.100Z,100945.84
2022-12-25T17:41:48.648Z,100940.63
2022-12-25T17:44:16.795Z,100928.41
2022-12-25T17:46:45.594Z,100934.53
2022-12-25T17:49:19.163Z,100938.03
2022-12-25T17:51:47.401Z,100938.03
2022-12-25T17:54:14.811Z,100933.66
2022-12-25T17:56:42.532Z,100919.63
2022-12-25T17:59:18.227Z,100905.69
2022-12-25T18:01:50.177Z,100903.03
2022-12-25T18:04:21.294Z,100902.16
2022-12-25T18:06:49.761Z,100902.13
2022-12-25T18:09:19.931Z,100899.44
2022-12-25T18:11:55.063Z,100906.38
2022-12-25T18:14:23.285Z,100902.84
2022-12-25T18:16:53.708Z,100908.94
2022-12-25T18:19:29.665Z,100904.50
2022-12-25T18:21:57.749Z,100914.06
2022-12-25T18:24:26.199Z,100910.50
2022-12-25T18:26:53.641Z,100910.44
2022-12-25T18:29:22.037Z,100907.78
2022-12-25T18:31:50.856Z,100908.66
2022-12-25T18:34:18.864Z,100914.75
2022-12-25T18:36:54.395Z,100913.00
2022-12-25T18:39:24.385Z,100912.09
2022-12-25T18:42:10.174Z,100906.84
2022-12-25T18:44:41.077Z,100903.34
2022-12-25T18:47:10.916Z,100905.97
2022-12-25T18:49:39.702Z,100904.22
2022-12-25T18:52:49.713Z,100911.22
2022-12-25T18:55:00.908Z,100900.69
2022-12-25T18:57:34.372Z,100897.22
2022-12-25T19:00:06.170Z,100893.69
2022-12-25T19:02:37.371Z,100891.94
2022-12-25T19:07:50.603Z,100880.63
2022-12-25T19:10:18.071Z,100871.91
2022-12-25T19:12:45.425Z,100872.81
2022-12-25T19:15:13.522Z,100873.69
2022-12-25T19:17:40.905Z,100867.56
2022-12-25T19:20:08.874Z,100874.59
2022-12-25T19:22:36.165Z,100870.19
2022-12-25T19:25:04.043Z,100867.56
2022-12-25T19:27:31.485Z,100871.94
2022-12-25T19:29:59.288Z,100867.56
2022-12-25T19:32:26.546Z,100878.06
2022-12-25T19:34:53.993Z,100871.94
2022-12-25T19:37:21.344Z,100871.91
2022-12-25T19:39:50.349Z,100874.53
2022-12-25T19:42:19.037Z,100877.16
2022-12-25T19:44:46.660Z,100878.91
2022-12-25T19:47:14.132Z,100880.63
2022-12-25T19:49:43.727Z,100883.25
2022-12-25T19:52:12.955Z,100886.78
2022-12-25T19:54:40.156Z,100886.78
2022-12-25T19:57:07.528Z,100885.91
2022-12-25T19:59:35.092Z,100880.66
2022-12-25T20:02:02.482Z,100881.53
2022-12-25T20:04:29.858Z,100884.19
2022-12-25T20:06:57.461Z,100891.16
2022-12-25T20:09:24.868Z,100882.41
2022-12-25T20:11:52.155Z,100891.16
2022-12-25T20:14:19.808Z,100884.16
2022-12-25T20:16:47.284Z,100890.25
2022-12-25T20:19:15.292Z,100885.00
2022-12-25T20:21:42.704Z,100886.75
2022-12-25T20:24:11.451Z,100887.59
2022-12-25T20:26:39.597Z,100894.63
2022-12-25T20:29:07.179Z,100893.75
2022-12-25T20:31:35.734Z,100891.13
2022-12-25T20:34:08.469Z,100891.13
2022-12-25T20:36:38.084Z,100887.63
2022-12-25T20:39:09.857Z,100891.13
2022-12-25T20:41:38.605Z,100893.78
2022-12-25T20:44:08.492Z,100891.16
2022-12-25T20:46:37.533Z,100886.78
2022-12-25T20:49:05.495Z,100886.78
2022-12-25T20:51:32.831Z,100885.00
2022-12-25T20:54:01.347Z,100892.91
2022-12-25T20:56:30.369Z,100892.00
2022-12-25T20:58:59.663Z,100890.25
2022-12-25T21:01:28.694Z,100890.25
2022-12-25T21:03:56.571Z,100888.50
2022-12-25T21:06:24.073Z,100885.00
2022-12-25T21:08:52.813Z,100898.16
2022-12-25T21:11:21.439Z,100903.38
2022-12-25T21:13:49.724Z,100896.38
2022-12-25T21:16:20.186Z,100895.50
2022-12-25T21:18:48.926Z,100885.00
2022-12-25T21:21:16.367Z,100873.66
2022-12-25T21:23:44.457Z,100879.75
2022-12-25T21:26:32.025Z,100875.41
2022-12-25T21:29:02.005Z,100859.66
2022-12-25T21:31:30.753Z,100865.78
2022-12-25T21:34:05.976Z,100877.13
2022-12-25T21:36:34.816Z,100878.03
2022-12-25T21:39:08.848Z,100878.91
2022-12-25T21:41:39.941Z,100883.25
2022-12-25T21:44:08.065Z,100888.50
2022-12-25T21:46:35.471Z,100885.88
2022-12-25T21:49:03.051Z,100881.50
2022-12-25T21:51:53.577Z,100874.50
2022-12-25T21:54:22.328Z,100880.63
2022-12-25T21:56:50.420Z,100878.03
2022-12-25T21:59:22.077Z,100861.38
2022-12-25T22:01:51.428Z,100865.78
2022-12-25T22:04:21.727Z,100880.63
2022-12-25T22:07:10.104Z,100878.03
2022-12-25T22:09:38.099Z,100889.38
2022-12-25T22:12:30.112Z,100889.34
2022-12-25T22:15:07.076Z,100896.38
2022-12-25T22:17:59.769Z,100884.09
2022-12-25T22:20:40.070Z,100878.00
2022-12-25T22:23:07.818Z,100899.84
2022-12-25T22:25:35.333Z,100895.47
2022-12-25T22:28:03.634Z,100902.44
2022-12-25T22:30:32.315Z,100902.44
2022-12-25T22:33:02.896Z,100898.09
2022-12-25T22:35:36.530Z,100899.88
2022-12-25T22:38:03.883Z,100904.25
2022-12-25T22:40:31.320Z,100896.41
2022-12-25T22:42:58.704Z,100892.03
2022-12-25T22:45:29.310Z,100899.03
2022-12-25T22:47:59.363Z,100893.75
2022-12-25T22:50:27.138Z,100892.91
2022-12-25T22:52:54.630Z,100889.41
2022-12-25T22:55:22.072Z,100892.03
2022-12-25T22:57:49.500Z,100899.00
2022-12-25T23:00:16.890Z,100899.91
2022-12-25T23:02:44.432Z,100900.75
2022-12-25T23:05:12.487Z,100885.00
2022-12-25T23:07:40.662Z,100885.00
2022-12-25T23:10:09.027Z,100890.25
2022-12-25T23:12:54.976Z,100890.25
2022-12-25T23:15:22.431Z,100891.13
2022-12-25T23:18:08.433Z,100889.38
2022-12-25T23:20:55.343Z,100893.75
2022-12-25T23:23:42.365Z,100881.47
2022-12-25T23:26:10.425Z,100881.47
2022-12-25T23:28:59.638Z,100877.13
2022-12-25T23:31:30.850Z,100882.34
2022-12-25T23:33:58.683Z,100876.25
2022-12-25T23:36:26.582Z,100884.97
2022-12-25T23:38:55.344Z,100879.72
2022-12-25T23:41:22.945Z,100888.47
2022-12-25T23:43:50.489Z,100881.47
2022-12-25T23:46:17.776Z,100894.56
2022-12-25T23:48:53.202Z,100885.81
2022-12-25T23:51:20.665Z,100887.59
2022-12-25T23:53:48.569Z,100889.28
2022-12-25T23:56:15.994Z,100885.81
2022-12-25T23:58:49.430Z,100885.81
